createdAt,value
2022-10-24T00:01:22.298Z,16.90
2022-10-24T00:04:08.074Z,17.00
2022-10-24T00:06:53.544Z,17.00
2022-10-24T00:09:39.394Z,17.10
2022-10-24T00:12:25.303Z,17.10
2022-10-24T00:15:11.236Z,17.10
2022-10-24T00:17:56.974Z,17.20
2022-10-24T00:23:28.853Z,17.20
2022-10-24T00:26:15.765Z,17.20
2022-10-24T00:31:52.154Z,17.20
2022-10-24T00:34:38.567Z,17.20
2022-10-24T00:37:24.258Z,17.20
2022-10-24T00:40:14.319Z,17.20
2022-10-24T00:42:59.686Z,17.20
2022-10-24T00:45:48.186Z,17.20
2022-10-24T00:48:46.781Z,17.20
2022-10-24T00:51:34.324Z,17.20
2022-10-24T00:54:20.261Z,17.20
2022-10-24T00:57:13.681Z,17.20
2022-10-24T01:00:06.294Z,17.20
2022-10-24T01:02:52.026Z,17.10
2022-10-24T01:05:49.935Z,17.10
2022-10-24T01:08:47.830Z,17.10
2022-10-24T01:11:45.333Z,17.10
2022-10-24T01:14:33.927Z,17.10
2022-10-24T01:17:34.223Z,17.10
2022-10-24T01:20:41.301Z,17.10
2022-10-24T01:23:56.003Z,17.10
2022-10-24T01:26:47.619Z,17.10
2022-10-24T01:30:00.517Z,17.10
2022-10-24T01:32:55.242Z,17.00
2022-10-24T01:35:54.070Z,17.00
2022-10-24T01:38:46.533Z,17.00
2022-10-24T01:41:33.690Z,17.00
2022-10-24T01:44:24.938Z,17.00
2022-10-24T01:47:22.774Z,17.00
2022-10-24T01:50:13.274Z,17.00
2022-10-24T01:52:59.472Z,17.00
2022-10-24T01:55:46.930Z,17.00
2022-10-24T01:58:32.681Z,17.00
2022-10-24T02:01:23.795Z,17.00
2022-10-24T02:04:12.967Z,17.00
2022-10-24T02:07:03.884Z,16.90
2022-10-24T02:10:02.472Z,16.90
2022-10-24T02:12:53.486Z,16.90
2022-10-24T02:15:44.910Z,16.90
2022-10-24T02:18:31.826Z,17.00
2022-10-24T02:21:52.308Z,17.00
2022-10-24T02:24:58.289Z,17.00
2022-10-24T02:27:48.282Z,17.00
2022-10-24T02:30:39.318Z,17.00
2022-10-24T02:33:27.477Z,17.00
2022-10-24T02:36:17.401Z,17.00
2022-10-24T02:39:07.074Z,16.90
2022-10-24T02:41:55.741Z,16.90
2022-10-24T02:44:43.876Z,16.90
2022-10-24T02:47:31.270Z,16.90
2022-10-24T02:50:17.342Z,16.90
2022-10-24T02:53:03.182Z,17.00
2022-10-24T02:55:48.602Z,17.00
2022-10-24T02:58:34.172Z,17.00
2022-10-24T03:01:20.168Z,17.00
2022-10-24T03:04:05.935Z,17.00
2022-10-24T03:06:51.411Z,17.00
2022-10-24T03:09:37.175Z,17.00
2022-10-24T03:12:24.335Z,17.00
2022-10-24T03:15:10.589Z,17.00
2022-10-24T03:17:56.271Z,17.00
2022-10-24T03:20:42.094Z,17.00
2022-10-24T03:23:28.722Z,17.00
2022-10-24T03:26:14.455Z,17.00
2022-10-24T03:29:00.041Z,17.00
2022-10-24T03:31:46.313Z,17.00
2022-10-24T03:34:32.077Z,17.00
2022-10-24T03:37:17.866Z,17.00
2022-10-24T03:40:03.938Z,17.00
2022-10-24T03:42:49.781Z,17.10
2022-10-24T03:45:35.344Z,17.00
2022-10-24T03:48:21.215Z,17.00
2022-10-24T03:51:07.072Z,17.00
2022-10-24T03:53:52.742Z,17.00
2022-10-24T03:56:38.637Z,17.00
2022-10-24T03:59:24.185Z,17.00
2022-10-24T04:02:09.681Z,16.90
2022-10-24T04:04:55.400Z,16.90
2022-10-24T04:07:41.061Z,16.90
2022-10-24T04:10:27.644Z,16.90
2022-10-24T04:13:13.089Z,16.90
2022-10-24T04:15:58.877Z,16.90
2022-10-24T04:18:45.131Z,16.90
2022-10-24T04:21:30.857Z,16.90
2022-10-24T04:24:17.246Z,16.90
2022-10-24T04:27:02.630Z,16.90
2022-10-24T04:29:48.339Z,16.80
2022-10-24T04:32:34.110Z,16.90
2022-10-24T04:35:19.862Z,16.80
2022-10-24T04:38:06.618Z,16.80
2022-10-24T04:40:54.012Z,16.80
2022-10-24T04:43:40.611Z,16.80
2022-10-24T04:46:26.357Z,16.80
2022-10-24T04:49:11.838Z,16.70
2022-10-24T04:51:57.431Z,16.80
2022-10-24T04:54:43.102Z,16.70
2022-10-24T04:57:28.818Z,16.70
2022-10-24T05:00:15.044Z,16.70
2022-10-24T05:03:00.955Z,16.70
2022-10-24T05:05:47.345Z,16.70
2022-10-24T05:08:33.066Z,16.80
2022-10-24T05:11:18.831Z,16.70
2022-10-24T05:14:04.566Z,16.60
2022-10-24T05:16:50.373Z,16.70
2022-10-24T05:19:36.514Z,16.70
2022-10-24T05:22:22.410Z,16.70
2022-10-24T05:25:08.314Z,16.70
2022-10-24T05:27:54.185Z,16.70
2022-10-24T05:30:39.788Z,16.70
2022-10-24T05:33:25.167Z,16.70
2022-10-24T05:36:11.015Z,16.70
2022-10-24T05:38:57.704Z,16.70
2022-10-24T05:41:46.271Z,16.70
2022-10-24T05:44:33.663Z,16.70
2022-10-24T05:47:19.469Z,16.70
2022-10-24T05:50:06.969Z,16.60
2022-10-24T05:52:53.446Z,16.60
2022-10-24T05:55:39.107Z,16.60
2022-10-24T05:58:25.038Z,16.60
2022-10-24T06:01:10.846Z,16.50
2022-10-24T06:03:57.067Z,16.60
2022-10-24T06:06:44.477Z,16.70
2022-10-24T06:09:30.417Z,16.60
2022-10-24T06:12:16.368Z,16.70
2022-10-24T06:15:02.330Z,16.60
2022-10-24T06:17:48.197Z,16.60
2022-10-24T06:20:33.723Z,16.70
2022-10-24T06:23:19.662Z,16.60
2022-10-24T06:26:14.201Z,16.70
2022-10-24T06:28:59.712Z,16.70
2022-10-24T06:31:45.526Z,16.70
2022-10-24T06:34:31.571Z,16.70
2022-10-24T06:37:17.398Z,16.70
2022-10-24T06:40:03.243Z,16.70
2022-10-24T06:42:48.790Z,16.70
2022-10-24T06:45:35.082Z,16.60
2022-10-24T06:48:20.555Z,16.60
2022-10-24T06:51:07.109Z,16.60
2022-10-24T06:53:52.968Z,16.60
2022-10-24T06:56:38.516Z,16.60
2022-10-24T06:59:24.497Z,16.60
2022-10-24T07:02:13.867Z,16.60
2022-10-24T07:04:59.790Z,16.50
2022-10-24T07:07:45.982Z,16.60
2022-10-24T07:10:32.219Z,16.50
2022-10-24T07:13:18.038Z,16.50
2022-10-24T07:16:04.473Z,16.60
2022-10-24T07:18:50.070Z,16.60
2022-10-24T07:21:35.597Z,16.60
2022-10-24T07:24:22.733Z,16.50
2022-10-24T07:27:08.527Z,16.50
2022-10-24T07:29:54.172Z,16.60
2022-10-24T07:32:39.802Z,16.70
2022-10-24T07:35:25.669Z,16.70
2022-10-24T07:38:16.364Z,16.70
2022-10-24T07:41:06.025Z,16.70
2022-10-24T07:43:52.872Z,16.70
2022-10-24T07:46:41.355Z,16.80
2022-10-24T07:49:30.205Z,16.80
2022-10-24T07:52:18.471Z,16.90
2022-10-24T07:55:04.699Z,16.90
2022-10-24T07:57:50.464Z,17.00
2022-10-24T08:00:39.085Z,17.00
2022-10-24T08:03:31.205Z,17.00
2022-10-24T08:06:19.910Z,17.00
2022-10-24T08:09:05.618Z,17.00
2022-10-24T08:11:51.226Z,17.00
2022-10-24T08:14:38.796Z,17.00
2022-10-24T08:17:24.727Z,17.00
2022-10-24T08:20:11.078Z,17.00
2022-10-24T08:22:56.589Z,17.10
2022-10-24T08:25:42.138Z,17.20
2022-10-24T08:28:27.822Z,17.20
2022-10-24T08:31:16.658Z,17.20
2022-10-24T08:34:05.530Z,17.20
2022-10-24T08:36:52.256Z,17.20
2022-10-24T08:39:38.643Z,17.20
2022-10-24T08:42:25.675Z,17.20
2022-10-24T08:45:22.441Z,17.20
2022-10-24T08:48:13.138Z,17.20
2022-10-24T08:51:53.375Z,17.20
2022-10-24T08:54:42.537Z,17.20
2022-10-24T09:00:19.104Z,17.20
2022-10-24T09:03:31.436Z,17.30
2022-10-24T09:06:32.975Z,17.30
2022-10-24T09:09:26.719Z,17.30
2022-10-24T09:12:19.351Z,17.30
2022-10-24T09:15:13.974Z,17.30
2022-10-24T09:18:00.093Z,17.40
2022-10-24T09:20:46.985Z,17.40
2022-10-24T09:23:34.082Z,17.50
2022-10-24T09:26:31.917Z,17.60
2022-10-24T09:29:17.547Z,17.50
2022-10-24T09:32:04.064Z,17.50
2022-10-24T09:34:50.958Z,17.70
2022-10-24T09:37:44.388Z,17.70
2022-10-24T09:40:34.489Z,17.80
2022-10-24T09:43:32.145Z,17.80
2022-10-24T09:46:19.359Z,17.80
2022-10-24T09:49:14.567Z,17.90
2022-10-24T09:52:22.273Z,18.00
2022-10-24T09:55:22.951Z,18.00
2022-10-24T09:58:19.462Z,18.00
2022-10-24T10:01:18.210Z,18.10
2022-10-24T10:04:09.417Z,18.20
2022-10-24T10:06:56.250Z,18.10
2022-10-24T10:09:56.662Z,18.20
2022-10-24T10:12:44.863Z,18.10
2022-10-24T10:15:44.228Z,18.10
2022-10-24T10:18:39.027Z,18.20
2022-10-24T10:21:25.191Z,18.30
2022-10-24T10:24:35.935Z,18.40
2022-10-24T10:27:35.102Z,18.50
2022-10-24T10:30:21.970Z,18.60
2022-10-24T10:33:19.292Z,18.80
2022-10-24T10:36:15.073Z,19.10
2022-10-24T10:39:12.899Z,19.20
2022-10-24T10:42:21.996Z,19.40
2022-10-24T10:45:10.474Z,19.40
2022-10-24T10:48:25.112Z,19.40
2022-10-24T10:51:26.103Z,19.40
2022-10-24T10:54:46.634Z,19.50
2022-10-24T10:57:42.458Z,19.60
2022-10-24T11:01:02.163Z,19.70
2022-10-24T11:04:16.926Z,19.70
2022-10-24T11:07:23.571Z,19.70
2022-10-24T11:10:13.706Z,19.60
2022-10-24T11:13:03.645Z,19.60
2022-10-24T11:15:54.079Z,19.60
2022-10-24T11:18:43.993Z,19.60
2022-10-24T11:21:33.355Z,19.80
2022-10-24T11:24:22.938Z,19.80
2022-10-24T11:27:24.235Z,19.80
2022-10-24T11:30:16.745Z,20.00
2022-10-24T11:33:06.931Z,20.10
2022-10-24T11:36:08.136Z,20.20
2022-10-24T11:39:01.815Z,20.30
2022-10-24T11:41:59.826Z,20.30
2022-10-24T11:44:58.795Z,20.30
2022-10-24T11:48:11.340Z,20.10
2022-10-24T11:51:12.185Z,19.90
2022-10-24T11:54:20.154Z,19.80
2022-10-24T11:59:59.954Z,20.00
2022-10-24T12:03:08.304Z,20.20
2022-10-24T12:06:26.090Z,20.50
2022-10-24T12:09:46.859Z,20.90
2022-10-24T12:12:41.530Z,21.20
2022-10-24T12:15:51.076Z,21.50
2022-10-24T12:18:38.348Z,21.70
2022-10-24T12:21:28.323Z,21.80
2022-10-24T12:24:32.878Z,22.00
2022-10-24T12:27:35.943Z,22.20
2022-10-24T12:30:26.472Z,22.40
2022-10-24T12:33:27.787Z,22.70
2022-10-24T12:36:13.858Z,23.00
2022-10-24T12:38:59.458Z,23.10
2022-10-24T12:41:45.108Z,23.20
2022-10-24T12:44:33.992Z,23.20
2022-10-24T12:47:38.558Z,23.30
2022-10-24T12:50:24.361Z,23.40
2022-10-24T12:53:19.215Z,23.50
2022-10-24T12:56:10.211Z,23.50
2022-10-24T12:59:11.997Z,23.50
2022-10-24T13:02:16.167Z,23.50
2022-10-24T13:05:44.199Z,23.50
2022-10-24T13:08:53.035Z,23.50
2022-10-24T13:11:57.057Z,23.60
2022-10-24T13:14:54.595Z,23.70
2022-10-24T13:17:59.913Z,23.70
2022-10-24T13:20:50.210Z,23.70
2022-10-24T13:23:36.102Z,23.80
2022-10-24T13:26:41.830Z,23.80
2022-10-24T13:29:27.264Z,23.80
2022-10-24T13:32:15.364Z,23.70
2022-10-24T13:35:07.948Z,23.70
2022-10-24T13:38:00.536Z,23.60
2022-10-24T13:40:47.312Z,23.60
2022-10-24T13:43:33.450Z,23.50
2022-10-24T13:46:36.980Z,23.60
2022-10-24T13:49:25.555Z,23.60
2022-10-24T13:52:19.434Z,23.50
2022-10-24T13:58:18.614Z,23.40
2022-10-24T14:01:41.972Z,23.30
2022-10-24T14:04:29.111Z,23.20
2022-10-24T14:07:21.398Z,23.10
2022-10-24T14:15:34.497Z,23.10
2022-10-24T14:18:20.771Z,23.10
2022-10-24T14:21:06.362Z,23.10
2022-10-24T14:24:01.687Z,23.10
2022-10-24T14:26:49.321Z,23.10
2022-10-24T14:29:35.691Z,23.20
2022-10-24T14:32:21.381Z,23.20
2022-10-24T14:35:07.465Z,23.30
2022-10-24T14:37:53.025Z,23.30
2022-10-24T14:40:38.637Z,23.20
2022-10-24T14:43:29.603Z,23.20
2022-10-24T14:46:15.039Z,23.20
2022-10-24T14:49:21.401Z,23.20
2022-10-24T14:52:07.253Z,23.20
2022-10-24T14:54:59.671Z,23.20
2022-10-24T14:57:51.231Z,23.10
2022-10-24T15:00:39.859Z,23.10
2022-10-24T15:03:27.378Z,23.00
2022-10-24T15:06:40.294Z,23.00
2022-10-24T15:09:26.343Z,22.90
2022-10-24T15:12:12.822Z,22.80
2022-10-24T15:16:43.543Z,22.80
2022-10-24T15:19:29.239Z,22.80
2022-10-24T15:22:38.387Z,22.70
2022-10-24T15:25:43.234Z,22.70
2022-10-24T15:28:45.269Z,22.60
2022-10-24T15:31:34.027Z,22.60
2022-10-24T15:34:22.548Z,22.50
2022-10-24T15:37:21.819Z,22.40
2022-10-24T15:40:19.267Z,22.40
2022-10-24T15:43:04.856Z,22.30
2022-10-24T15:45:51.708Z,22.20
2022-10-24T15:48:39.473Z,22.20
2022-10-24T15:51:25.587Z,22.10
2022-10-24T15:54:13.279Z,22.10
2022-10-24T15:57:02.818Z,22.00
2022-10-24T15:59:51.082Z,22.00
2022-10-24T16:02:36.998Z,22.00
2022-10-24T16:05:25.967Z,22.00
2022-10-24T16:08:14.905Z,21.90
2022-10-24T16:11:00.557Z,21.90
2022-10-24T16:13:46.364Z,21.90
2022-10-24T16:16:31.931Z,21.80
2022-10-24T16:19:17.938Z,21.80
2022-10-24T16:22:03.743Z,21.70
2022-10-24T16:24:49.305Z,21.60
2022-10-24T16:27:35.072Z,21.60
2022-10-24T16:30:23.707Z,21.50
2022-10-24T16:33:09.763Z,21.40
2022-10-24T16:35:55.452Z,21.30
2022-10-24T16:38:41.198Z,21.30
2022-10-24T16:41:26.959Z,21.20
2022-10-24T16:44:14.008Z,21.10
2022-10-24T16:46:59.797Z,21.10
2022-10-24T16:49:45.750Z,21.00
2022-10-24T16:52:31.373Z,21.00
2022-10-24T16:56:26.852Z,20.90
2022-10-24T16:59:15.369Z,20.90
2022-10-24T17:02:01.545Z,20.80
2022-10-24T17:04:47.032Z,20.80
2022-10-24T17:07:32.518Z,20.80
2022-10-24T17:10:20.800Z,20.70
2022-10-24T17:13:09.647Z,20.70
2022-10-24T17:15:55.114Z,20.70
2022-10-24T17:18:45.745Z,20.60
2022-10-24T17:21:37.231Z,20.60
2022-10-24T17:24:41.402Z,20.60
2022-10-24T17:31:07.276Z,20.60
2022-10-24T17:33:56.129Z,20.70
2022-10-24T17:36:45.982Z,20.80
2022-10-24T17:39:47.554Z,20.90
2022-10-24T17:42:34.351Z,20.90
2022-10-24T17:45:23.035Z,21.00
2022-10-24T17:48:10.313Z,21.00
2022-10-24T17:50:58.400Z,21.00
2022-10-24T17:53:43.961Z,21.00
2022-10-24T17:56:29.779Z,21.00
2022-10-24T17:59:15.418Z,21.10
2022-10-24T18:02:01.140Z,21.10
2022-10-24T18:04:46.872Z,21.10
2022-10-24T18:07:36.191Z,21.10
2022-10-24T18:10:21.955Z,21.10
2022-10-24T18:13:08.308Z,21.10
2022-10-24T18:15:53.693Z,21.00
2022-10-24T18:18:40.132Z,21.00
2022-10-24T18:21:27.302Z,21.00
2022-10-24T18:24:12.707Z,21.00
2022-10-24T18:26:58.638Z,21.00
2022-10-24T18:29:44.345Z,20.90
2022-10-24T18:32:29.747Z,20.90
2022-10-24T18:35:15.796Z,20.90
2022-10-24T18:38:02.122Z,20.90
2022-10-24T18:40:48.011Z,20.90
2022-10-24T18:43:33.645Z,20.90
2022-10-24T18:46:19.900Z,20.90
2022-10-24T18:49:06.811Z,20.90
2022-10-24T18:52:05.922Z,20.90
2022-10-24T18:55:06.753Z,20.80
2022-10-24T18:57:52.959Z,20.70
2022-10-24T19:00:42.282Z,20.70
2022-10-24T19:03:48.894Z,20.70
2022-10-24T19:06:46.105Z,20.80
2022-10-24T19:09:34.854Z,20.80
2022-10-24T19:12:20.447Z,20.80
2022-10-24T19:15:06.557Z,20.80
2022-10-24T19:17:52.296Z,20.80
2022-10-24T19:20:38.439Z,20.80
2022-10-24T19:23:24.863Z,20.80
2022-10-24T19:26:11.941Z,20.80
2022-10-24T19:29:00.016Z,20.80
2022-10-24T19:31:47.860Z,20.90
2022-10-24T19:34:35.537Z,20.80
2022-10-24T19:37:24.074Z,20.80
2022-10-24T19:40:10.790Z,20.70
2022-10-24T19:42:56.868Z,20.70
2022-10-24T19:45:49.985Z,20.70
2022-10-24T19:48:40.983Z,20.70
2022-10-24T19:51:26.591Z,20.70
2022-10-24T19:54:12.629Z,20.70
2022-10-24T19:56:58.367Z,20.90
2022-10-24T19:59:44.263Z,20.90
2022-10-24T20:02:29.989Z,20.80
2022-10-24T20:05:15.638Z,20.80
2022-10-24T20:08:01.321Z,20.70
2022-10-24T20:10:54.019Z,20.60
2022-10-24T20:13:39.361Z,20.70
2022-10-24T20:16:24.850Z,20.60
2022-10-24T20:19:10.613Z,20.60
2022-10-24T20:21:57.891Z,20.60
2022-10-24T20:24:46.537Z,20.70
2022-10-24T20:27:38.791Z,20.80
2022-10-24T20:30:24.994Z,20.90
2022-10-24T20:33:10.778Z,21.00
2022-10-24T20:36:00.850Z,21.10
2022-10-24T20:38:46.285Z,21.10
2022-10-24T20:41:32.723Z,21.10
2022-10-24T20:44:18.184Z,21.10
2022-10-24T20:47:03.738Z,21.10
2022-10-24T20:49:49.553Z,21.10
2022-10-24T20:52:35.062Z,21.10
2022-10-24T20:55:31.735Z,21.20
2022-10-24T20:58:25.405Z,21.20
2022-10-24T21:01:19.896Z,21.10
2022-10-24T21:04:05.495Z,21.10
2022-10-24T21:06:51.294Z,21.00
2022-10-24T21:09:37.575Z,20.90
2022-10-24T21:12:23.200Z,20.80
2022-10-24T21:15:10.241Z,20.70
2022-10-24T21:17:56.987Z,20.60
2022-10-24T21:20:45.579Z,20.50
2022-10-24T21:23:31.404Z,20.40
2022-10-24T21:26:17.356Z,20.30
2022-10-24T21:29:09.381Z,20.20
2022-10-24T21:32:06.821Z,20.20
2022-10-24T21:34:52.743Z,20.10
2022-10-24T21:37:39.702Z,20.00
2022-10-24T21:40:25.531Z,19.90
2022-10-24T21:43:10.968Z,19.80
2022-10-24T21:46:18.591Z,19.80
2022-10-24T21:49:04.396Z,19.70
2022-10-24T21:51:50.278Z,19.70
2022-10-24T21:54:35.964Z,19.60
2022-10-24T21:57:21.333Z,19.50
2022-10-24T22:00:07.750Z,19.60
2022-10-24T22:02:53.432Z,19.50
2022-10-24T22:05:39.225Z,19.50
2022-10-24T22:08:25.278Z,19.40
2022-10-24T22:11:19.135Z,19.40
2022-10-24T22:14:05.345Z,19.40
2022-10-24T22:16:51.201Z,19.40
2022-10-24T22:19:36.620Z,19.40
2022-10-24T22:22:22.246Z,19.40
2022-10-24T22:25:08.267Z,19.40
2022-10-24T22:27:53.666Z,19.40
2022-10-24T22:30:40.793Z,19.40
2022-10-24T22:33:33.941Z,19.40
2022-10-24T22:36:25.439Z,19.40
2022-10-24T22:39:17.619Z,19.40
2022-10-24T22:42:05.060Z,19.40
2022-10-24T22:44:51.057Z,19.40
2022-10-24T22:47:41.829Z,19.40
2022-10-24T22:50:46.984Z,19.40
2022-10-24T22:53:32.945Z,19.40
2022-10-24T22:56:23.113Z,19.50
2022-10-24T22:59:09.034Z,19.50
2022-10-24T23:02:29.440Z,19.50
2022-10-24T23:05:30.729Z,19.50
2022-10-24T23:08:36.359Z,19.50
2022-10-24T23:11:22.281Z,19.50
2022-10-24T23:14:09.486Z,19.40
2022-10-24T23:17:00.953Z,19.40
2022-10-24T23:19:47.473Z,19.40
2022-10-24T23:22:33.489Z,19.40
2022-10-24T23:25:19.840Z,19.40
2022-10-24T23:28:24.935Z,19.40
2022-10-24T23:31:10.831Z,19.40
2022-10-24T23:33:57.128Z,19.40
2022-10-24T23:36:44.763Z,19.30
2022-10-24T23:39:34.856Z,19.30
2022-10-24T23:42:20.728Z,19.30
2022-10-24T23:45:11.553Z,19.30
2022-10-24T23:48:25.093Z,19.20
2022-10-24T23:51:35.025Z,19.20
2022-10-24T23:54:26.973Z,19.20
2022-10-24T23:57:17.127Z,19.20
